createdAt,value
2023-05-19T00:01:39.042Z,31.22
2023-05-19T00:04:10.492Z,31.22
2023-05-19T00:06:42.937Z,31.09
2023-05-19T00:09:14.103Z,31.29
2023-05-19T00:11:45.021Z,31.29
2023-05-19T00:14:16.391Z,31.32
2023-05-19T00:16:47.490Z,31.26
2023-05-19T00:19:19.134Z,31.42
2023-05-19T00:21:51.459Z,31.42
2023-05-19T00:24:22.474Z,31.48
2023-05-19T00:26:53.358Z,31.50
2023-05-19T00:29:24.512Z,31.54
2023-05-19T00:31:56.413Z,31.52
2023-05-19T00:34:30.187Z,31.56
2023-05-19T00:37:01.064Z,31.35
2023-05-19T00:39:32.491Z,31.61
2023-05-19T00:42:04.338Z,31.58
2023-05-19T00:44:35.466Z,31.63
2023-05-19T00:47:06.525Z,31.56
2023-05-19T00:49:38.372Z,31.68
2023-05-19T00:52:09.632Z,31.73
2023-05-19T00:54:42.509Z,31.75
2023-05-19T00:57:23.121Z,31.79
2023-05-19T00:59:54.723Z,31.81
2023-05-19T01:02:25.910Z,31.80
2023-05-19T01:04:58.816Z,31.85
2023-05-19T01:07:30.522Z,31.44
2023-05-19T01:10:01.889Z,31.91
2023-05-19T01:12:33.386Z,31.94
2023-05-19T01:15:06.946Z,31.95
2023-05-19T01:17:37.413Z,31.70
2023-05-19T01:20:27.354Z,31.72
2023-05-19T01:23:41.512Z,31.86
2023-05-19T01:26:30.644Z,31.97
2023-05-19T01:29:18.931Z,32.04
2023-05-19T01:31:51.869Z,32.02
2023-05-19T01:34:25.430Z,32.12
2023-05-19T01:36:57.729Z,32.08
2023-05-19T01:39:28.033Z,31.89
2023-05-19T01:42:00.406Z,32.16
2023-05-19T01:44:33.494Z,32.21
2023-05-19T01:47:05.727Z,32.23
2023-05-19T01:49:36.515Z,32.18
2023-05-19T01:52:08.179Z,32.19
2023-05-19T01:54:39.402Z,32.29
2023-05-19T01:57:33.946Z,32.34
2023-05-19T02:00:24.801Z,32.29
2023-05-19T02:03:00.616Z,32.36
2023-05-19T02:05:40.951Z,32.41
2023-05-19T02:08:36.155Z,32.31
2023-05-19T02:11:34.005Z,32.41
2023-05-19T02:14:34.829Z,32.50
2023-05-19T02:17:07.685Z,32.49
2023-05-19T02:19:44.143Z,32.01
2023-05-19T02:22:14.999Z,32.59
2023-05-19T02:24:47.862Z,32.60
2023-05-19T02:27:19.145Z,32.64
2023-05-19T02:29:50.529Z,32.62
2023-05-19T02:32:22.181Z,32.69
2023-05-19T02:34:54.613Z,32.67
2023-05-19T02:37:29.824Z,32.47
2023-05-19T02:40:01.153Z,32.72
2023-05-19T02:42:33.224Z,32.78
2023-05-19T02:45:04.428Z,32.81
2023-05-19T02:47:37.160Z,32.82
2023-05-19T02:50:10.628Z,32.86
2023-05-19T02:52:41.777Z,32.85
2023-05-19T02:55:18.307Z,32.90
2023-05-19T02:57:49.715Z,32.93
2023-05-19T03:00:21.487Z,32.93
2023-05-19T03:02:54.470Z,32.97
2023-05-19T03:05:25.631Z,33.01
2023-05-19T03:07:56.670Z,33.04
2023-05-19T03:10:27.826Z,32.92
2023-05-19T03:12:58.859Z,33.06
2023-05-19T03:15:30.061Z,33.07
2023-05-19T03:18:01.052Z,33.01
2023-05-19T03:20:32.675Z,33.08
2023-05-19T03:23:04.022Z,33.06
2023-05-19T03:25:35.445Z,33.00
2023-05-19T03:28:07.039Z,33.12
2023-05-19T03:30:41.339Z,33.13
2023-05-19T03:33:19.662Z,33.17
2023-05-19T03:35:51.111Z,33.18
2023-05-19T03:38:25.174Z,32.91
2023-05-19T03:41:01.504Z,33.16
2023-05-19T03:43:32.640Z,33.20
2023-05-19T03:46:07.315Z,33.20
2023-05-19T03:49:17.772Z,32.92
2023-05-19T03:52:07.111Z,33.28
2023-05-19T03:54:54.514Z,33.27
2023-05-19T03:57:26.158Z,33.31
2023-05-19T04:00:00.110Z,33.33
2023-05-19T04:02:38.274Z,33.24
2023-05-19T04:05:12.114Z,33.38
2023-05-19T04:07:44.421Z,33.41
2023-05-19T04:10:16.087Z,33.42
2023-05-19T04:12:47.743Z,33.44
2023-05-19T04:15:19.831Z,33.42
2023-05-19T04:17:51.333Z,33.40
2023-05-19T04:20:26.543Z,33.49
2023-05-19T04:22:59.176Z,33.52
2023-05-19T04:25:30.057Z,33.54
2023-05-19T04:28:02.392Z,33.57
2023-05-19T04:30:34.915Z,33.57
2023-05-19T04:33:06.203Z,33.62
2023-05-19T04:35:39.601Z,33.61
2023-05-19T04:38:13.748Z,33.64
2023-05-19T04:40:45.914Z,33.59
2023-05-19T04:43:17.284Z,33.69
2023-05-19T04:45:51.671Z,33.69
2023-05-19T04:48:26.130Z,33.74
2023-05-19T04:50:57.203Z,33.74
2023-05-19T04:53:28.242Z,33.75
2023-05-19T04:56:00.478Z,33.67
2023-05-19T04:58:33.371Z,33.75
2023-05-19T05:01:05.422Z,33.83
2023-05-19T05:03:39.602Z,33.85
2023-05-19T05:06:10.649Z,33.57
2023-05-19T05:08:42.792Z,33.81
2023-05-19T05:11:33.659Z,33.85
2023-05-19T05:14:06.016Z,33.86
2023-05-19T05:16:37.783Z,33.93
2023-05-19T05:19:10.459Z,33.97
2023-05-19T05:21:42.890Z,33.96
2023-05-19T05:24:15.223Z,33.96
2023-05-19T05:26:52.166Z,34.03
2023-05-19T05:29:23.572Z,34.04
2023-05-19T05:31:54.716Z,34.06
2023-05-19T05:34:27.367Z,34.08
2023-05-19T05:36:59.157Z,34.12
2023-05-19T05:39:31.003Z,34.11
2023-05-19T05:42:02.417Z,34.14
2023-05-19T05:44:35.635Z,34.20
2023-05-19T05:47:08.582Z,34.23
2023-05-19T05:49:39.530Z,33.98
2023-05-19T05:52:13.356Z,34.24
2023-05-19T05:54:49.550Z,34.17
2023-05-19T05:57:23.208Z,34.33
2023-05-19T05:59:54.905Z,34.37
2023-05-19T06:02:26.558Z,34.35
2023-05-19T06:04:58.638Z,34.35
2023-05-19T06:07:29.797Z,34.45
2023-05-19T06:10:01.204Z,34.45
2023-05-19T06:12:53.288Z,34.49
2023-05-19T06:15:26.244Z,34.56
2023-05-19T06:18:11.077Z,34.44
2023-05-19T06:20:43.494Z,34.35
2023-05-19T06:23:14.512Z,34.64
2023-05-19T06:25:45.792Z,34.62
2023-05-19T06:28:17.799Z,34.72
2023-05-19T06:30:48.730Z,34.48
2023-05-19T06:33:28.224Z,34.64
2023-05-19T06:36:01.404Z,34.28
2023-05-19T06:38:33.902Z,34.83
2023-05-19T06:41:04.527Z,34.62
2023-05-19T06:43:35.471Z,34.88
2023-05-19T06:46:07.578Z,34.94
2023-05-19T06:48:38.507Z,34.97
2023-05-19T06:51:11.662Z,35.02
2023-05-19T06:53:44.364Z,35.05
2023-05-19T06:56:16.970Z,35.12
2023-05-19T06:58:48.906Z,35.16
2023-05-19T07:01:20.436Z,35.21
2023-05-19T07:03:58.120Z,35.24
2023-05-19T07:06:29.704Z,35.24
2023-05-19T07:09:01.320Z,35.32
2023-05-19T07:11:33.712Z,35.35
2023-05-19T07:14:05.919Z,35.36
2023-05-19T07:16:37.457Z,35.40
2023-05-19T07:19:09.704Z,35.45
2023-05-19T07:21:41.347Z,35.45
2023-05-19T07:24:12.706Z,35.21
2023-05-19T07:26:44.271Z,35.53
2023-05-19T07:29:15.447Z,35.55
2023-05-19T07:31:47.230Z,35.57
2023-05-19T07:34:18.556Z,35.61
2023-05-19T07:36:49.478Z,35.38
2023-05-19T07:39:21.574Z,35.55
2023-05-19T07:41:56.963Z,35.64
2023-05-19T07:44:28.671Z,35.70
2023-05-19T07:47:00.562Z,35.73
2023-05-19T07:49:31.674Z,35.70
2023-05-19T07:52:02.946Z,35.75
2023-05-19T07:54:33.968Z,35.78
2023-05-19T07:57:05.211Z,35.79
2023-05-19T07:59:36.124Z,35.81
2023-05-19T08:02:07.885Z,35.80
2023-05-19T08:04:41.781Z,35.67
2023-05-19T08:07:13.115Z,35.86
2023-05-19T08:09:44.304Z,35.87
2023-05-19T08:12:15.141Z,35.43
2023-05-19T08:14:46.091Z,35.88
2023-05-19T08:17:17.680Z,35.76
2023-05-19T08:19:48.574Z,35.91
2023-05-19T08:22:19.866Z,35.89
2023-05-19T08:24:53.615Z,35.94
2023-05-19T08:27:25.450Z,35.89
2023-05-19T08:29:56.943Z,35.95
2023-05-19T08:32:29.255Z,35.98
2023-05-19T08:35:00.543Z,35.96
2023-05-19T08:37:34.212Z,35.99
2023-05-19T08:40:06.979Z,35.96
2023-05-19T08:42:38.431Z,36.01
2023-05-19T08:45:09.997Z,35.99
2023-05-19T08:47:47.634Z,36.00
2023-05-19T08:50:26.454Z,35.51
2023-05-19T08:53:33.015Z,35.82
2023-05-19T08:56:17.255Z,35.71
2023-05-19T08:58:50.027Z,36.03
2023-05-19T09:01:22.574Z,36.02
2023-05-19T09:03:54.490Z,36.04
2023-05-19T09:06:26.663Z,36.03
2023-05-19T09:08:58.139Z,36.05
2023-05-19T09:11:29.107Z,36.02
2023-05-19T09:14:00.414Z,36.03
2023-05-19T09:16:31.880Z,36.03
2023-05-19T09:19:03.301Z,36.06
2023-05-19T09:21:44.562Z,35.79
2023-05-19T09:24:15.920Z,36.05
2023-05-19T09:26:47.381Z,35.85
2023-05-19T09:29:18.840Z,35.54
2023-05-19T09:31:53.836Z,35.58
2023-05-19T09:34:28.237Z,35.57
2023-05-19T09:37:01.256Z,35.56
2023-05-19T09:39:34.120Z,35.49
2023-05-19T09:42:08.295Z,35.39
2023-05-19T09:44:39.616Z,35.46
2023-05-19T09:47:12.550Z,35.46
2023-05-19T09:49:49.163Z,35.44
2023-05-19T09:52:20.443Z,35.35
2023-05-19T09:54:53.172Z,35.29
2023-05-19T09:57:30.950Z,35.60
2023-05-19T10:00:09.987Z,35.03
2023-05-19T10:02:45.291Z,35.58
2023-05-19T10:05:24.093Z,35.41
2023-05-19T10:07:58.626Z,35.53
2023-05-19T10:10:30.255Z,35.47
2023-05-19T10:13:01.987Z,35.47
2023-05-19T10:15:36.195Z,35.46
2023-05-19T10:18:12.830Z,35.46
2023-05-19T10:20:45.560Z,35.57
2023-05-19T10:23:16.739Z,35.66
2023-05-19T10:25:50.611Z,35.55
2023-05-19T10:28:26.780Z,35.78
2023-05-19T10:31:03.531Z,35.30
2023-05-19T10:33:55.893Z,35.78
2023-05-19T10:36:50.383Z,35.82
2023-05-19T10:39:37.561Z,35.61
2023-05-19T10:42:21.136Z,35.55
2023-05-19T10:45:13.806Z,35.50
2023-05-19T10:47:45.860Z,35.48
2023-05-19T10:50:17.459Z,35.44
2023-05-19T10:52:59.339Z,35.41
2023-05-19T10:55:54.292Z,35.19
2023-05-19T10:58:46.663Z,35.32
2023-05-19T11:01:19.752Z,35.53
2023-05-19T11:03:53.899Z,35.61
2023-05-19T11:06:33.528Z,35.14
2023-05-19T11:09:15.549Z,35.65
2023-05-19T11:11:52.565Z,35.62
2023-05-19T11:14:31.061Z,35.62
2023-05-19T11:17:02.912Z,35.78
2023-05-19T11:19:36.982Z,35.19
2023-05-19T11:22:16.178Z,35.62
2023-05-19T11:24:53.731Z,35.78
2023-05-19T11:27:36.340Z,35.74
2023-05-19T11:30:20.260Z,35.72
2023-05-19T11:32:51.721Z,35.76
2023-05-19T11:35:24.102Z,35.66
2023-05-19T11:37:57.235Z,35.72
2023-05-19T11:40:29.693Z,35.76
2023-05-19T11:43:01.142Z,35.74
2023-05-19T11:45:34.784Z,35.73
2023-05-19T11:48:13.221Z,35.70
2023-05-19T11:50:46.099Z,35.69
2023-05-19T11:53:23.391Z,35.67
2023-05-19T11:55:54.903Z,35.68
2023-05-19T11:58:29.377Z,35.58
2023-05-19T12:01:06.400Z,35.62
2023-05-19T12:03:37.687Z,35.64
2023-05-19T12:06:10.014Z,35.42
2023-05-19T12:08:41.585Z,35.36
2023-05-19T12:11:18.229Z,35.31
2023-05-19T12:13:52.361Z,35.23
2023-05-19T12:16:24.292Z,35.18
2023-05-19T12:18:55.066Z,34.95
2023-05-19T12:21:33.806Z,35.08
2023-05-19T12:24:07.449Z,34.90
2023-05-19T12:26:39.206Z,35.01
2023-05-19T12:29:10.462Z,35.03
2023-05-19T12:31:43.241Z,34.96
2023-05-19T12:34:15.046Z,34.81
2023-05-19T12:36:46.653Z,34.98
2023-05-19T12:39:19.516Z,34.91
2023-05-19T12:41:52.298Z,34.95
2023-05-19T12:44:23.524Z,34.79
2023-05-19T12:46:54.611Z,34.68
2023-05-19T12:49:28.663Z,34.86
2023-05-19T12:52:11.868Z,34.83
2023-05-19T12:54:44.405Z,34.61
2023-05-19T12:57:18.935Z,34.39
2023-05-19T12:59:51.923Z,34.15
2023-05-19T13:02:23.950Z,34.04
2023-05-19T13:04:55.975Z,33.90
2023-05-19T13:07:28.688Z,33.76
2023-05-19T13:10:00.216Z,33.69
2023-05-19T13:12:33.909Z,33.58
2023-05-19T13:15:05.077Z,33.48
2023-05-19T13:17:38.145Z,33.36
2023-05-19T13:20:13.510Z,33.32
2023-05-19T13:22:45.282Z,33.26
2023-05-19T13:25:17.354Z,33.08
2023-05-19T13:27:49.992Z,33.10
2023-05-19T13:30:23.582Z,33.07
2023-05-19T13:32:55.289Z,33.01
2023-05-19T13:35:27.816Z,32.88
2023-05-19T13:37:59.459Z,32.72
2023-05-19T13:40:34.384Z,32.68
2023-05-19T13:43:10.268Z,32.64
2023-05-19T13:45:43.735Z,32.58
2023-05-19T13:48:16.101Z,32.50
2023-05-19T13:50:48.686Z,32.56
2023-05-19T13:53:21.159Z,32.51
2023-05-19T13:55:54.458Z,32.46
2023-05-19T13:58:26.225Z,32.43
2023-05-19T14:01:01.554Z,32.41
2023-05-19T14:03:33.107Z,32.40
2023-05-19T14:06:07.048Z,32.42
2023-05-19T14:08:38.482Z,32.39
2023-05-19T14:11:09.807Z,32.41
2023-05-19T14:13:43.336Z,32.40
2023-05-19T14:16:14.782Z,32.41
2023-05-19T14:18:47.129Z,32.38
2023-05-19T14:21:21.406Z,32.38
2023-05-19T14:23:55.669Z,32.38
2023-05-19T14:26:29.329Z,32.33
2023-05-19T14:29:02.201Z,32.33
2023-05-19T14:31:35.564Z,32.31
2023-05-19T14:34:07.437Z,32.27
2023-05-19T14:36:38.756Z,32.22
2023-05-19T14:39:11.806Z,32.16
2023-05-19T14:41:43.270Z,32.18
2023-05-19T14:44:15.023Z,32.18
2023-05-19T14:46:46.680Z,32.13
2023-05-19T14:49:18.544Z,32.01
2023-05-19T14:51:49.804Z,32.09
2023-05-19T14:54:21.505Z,32.03
2023-05-19T14:56:57.173Z,32.04
2023-05-19T14:59:28.823Z,31.97
2023-05-19T15:02:04.782Z,31.95
2023-05-19T15:04:35.792Z,31.75
2023-05-19T15:07:11.413Z,31.88
2023-05-19T15:09:43.049Z,31.92
2023-05-19T15:12:14.572Z,31.81
2023-05-19T15:14:48.762Z,31.86
2023-05-19T15:17:20.501Z,31.80
2023-05-19T15:19:52.243Z,31.73
2023-05-19T15:22:23.884Z,31.71
2023-05-19T15:24:55.935Z,31.70
2023-05-19T15:27:27.259Z,31.65
2023-05-19T15:30:00.525Z,31.68
2023-05-19T15:32:32.231Z,31.64
2023-05-19T15:35:03.938Z,31.59
2023-05-19T15:37:35.404Z,31.60
2023-05-19T15:40:07.534Z,31.55
2023-05-19T15:42:39.096Z,31.56
2023-05-19T15:45:13.380Z,31.57
2023-05-19T15:47:44.698Z,31.54
2023-05-19T15:50:16.897Z,31.50
2023-05-19T15:52:51.305Z,31.53
2023-05-19T15:55:23.013Z,31.49
2023-05-19T15:57:57.281Z,31.46
2023-05-19T16:00:30.115Z,31.44
2023-05-19T16:03:01.561Z,31.42
2023-05-19T16:05:33.192Z,31.32
2023-05-19T16:08:06.508Z,31.37
2023-05-19T16:10:41.197Z,31.35
2023-05-19T16:13:12.607Z,31.38
2023-05-19T16:15:52.220Z,31.35
2023-05-19T16:18:24.355Z,31.20
2023-05-19T16:20:57.958Z,31.28
2023-05-19T16:23:32.356Z,31.29
2023-05-19T16:26:04.180Z,31.24
2023-05-19T16:28:35.487Z,31.25
2023-05-19T16:31:08.566Z,30.98
2023-05-19T16:33:41.595Z,31.24
2023-05-19T16:36:13.357Z,31.22
2023-05-19T16:38:44.599Z,31.19
2023-05-19T16:41:16.085Z,31.06
2023-05-19T16:43:47.354Z,31.17
2023-05-19T16:46:18.832Z,31.16
2023-05-19T16:48:50.164Z,31.09
2023-05-19T16:51:23.155Z,31.10
2023-05-19T16:53:54.356Z,31.09
2023-05-19T16:56:25.856Z,30.91
2023-05-19T16:58:57.037Z,31.04
2023-05-19T17:01:28.630Z,31.02
2023-05-19T17:03:59.850Z,31.00
2023-05-19T17:06:31.566Z,31.00
2023-05-19T17:09:04.092Z,31.00
2023-05-19T17:11:38.211Z,31.00
2023-05-19T17:14:10.620Z,30.91
2023-05-19T17:16:43.714Z,30.96
2023-05-19T17:19:15.135Z,30.89
2023-05-19T17:21:46.251Z,30.69
2023-05-19T17:24:17.830Z,30.77
2023-05-19T17:26:49.157Z,30.89
2023-05-19T17:29:20.335Z,30.85
2023-05-19T17:31:52.344Z,30.84
2023-05-19T17:34:23.604Z,30.80
2023-05-19T17:36:54.955Z,30.78
2023-05-19T17:39:26.452Z,30.76
2023-05-19T17:41:57.664Z,30.51
2023-05-19T17:44:28.677Z,30.72
2023-05-19T17:47:00.361Z,30.68
2023-05-19T17:49:31.441Z,30.66
2023-05-19T17:52:03.036Z,30.69
2023-05-19T17:54:34.539Z,30.67
2023-05-19T17:57:09.578Z,30.64
2023-05-19T17:59:41.188Z,30.65
2023-05-19T18:02:16.663Z,30.59
2023-05-19T18:04:48.173Z,30.45
2023-05-19T18:07:21.149Z,30.60
2023-05-19T18:09:54.221Z,29.98
2023-05-19T18:12:25.671Z,30.56
2023-05-19T18:14:56.825Z,30.52
2023-05-19T18:17:28.570Z,30.54
2023-05-19T18:19:59.524Z,30.54
2023-05-19T18:22:30.816Z,30.55
2023-05-19T18:25:01.799Z,30.50
2023-05-19T18:27:34.779Z,30.32
2023-05-19T18:30:05.896Z,30.46
2023-05-19T18:32:37.025Z,30.44
2023-05-19T18:35:08.495Z,30.40
2023-05-19T18:37:39.561Z,30.42
2023-05-19T18:40:10.855Z,30.42
2023-05-19T18:42:41.833Z,30.32
2023-05-19T18:45:13.056Z,30.37
2023-05-19T18:47:44.173Z,30.36
2023-05-19T18:50:15.760Z,30.38
2023-05-19T18:52:47.044Z,30.01
2023-05-19T18:55:18.116Z,30.22
2023-05-19T18:57:55.779Z,30.32
2023-05-19T19:00:30.029Z,30.32
2023-05-19T19:03:01.099Z,30.30
2023-05-19T19:05:32.269Z,30.30
2023-05-19T19:08:03.761Z,30.27
2023-05-19T19:10:40.484Z,30.22
2023-05-19T19:13:11.373Z,30.22
2023-05-19T19:15:42.075Z,30.25
2023-05-19T19:18:14.087Z,30.20
2023-05-19T19:20:44.873Z,30.22
2023-05-19T19:23:15.773Z,30.23
2023-05-19T19:25:46.501Z,30.13
2023-05-19T19:28:17.852Z,30.14
2023-05-19T19:30:51.874Z,30.17
2023-05-19T19:33:23.089Z,30.06
2023-05-19T19:35:53.763Z,30.12
2023-05-19T19:38:24.531Z,30.14
2023-05-19T19:40:55.369Z,30.14
2023-05-19T19:43:26.565Z,30.10
2023-05-19T19:46:04.347Z,30.08
2023-05-19T19:48:35.384Z,30.10
2023-05-19T19:51:06.115Z,30.18
2023-05-19T19:53:37.252Z,30.00
2023-05-19T19:56:08.573Z,30.14
2023-05-19T19:58:39.657Z,30.06
2023-05-19T20:01:10.496Z,30.05
2023-05-19T20:03:41.395Z,29.86
2023-05-19T20:06:12.084Z,30.01
2023-05-19T20:08:43.201Z,29.94
2023-05-19T20:11:17.926Z,29.93
2023-05-19T20:13:48.909Z,29.90
2023-05-19T20:16:19.751Z,29.88
2023-05-19T20:18:51.853Z,29.88
2023-05-19T20:21:22.592Z,29.84
2023-05-19T20:23:53.468Z,29.87
2023-05-19T20:26:24.174Z,29.83
2023-05-19T20:28:55.340Z,29.65
2023-05-19T20:31:27.425Z,29.69
2023-05-19T20:33:59.336Z,29.75
2023-05-19T20:36:31.664Z,29.82
2023-05-19T20:39:02.817Z,29.75
2023-05-19T20:41:33.392Z,29.73
2023-05-19T20:44:07.772Z,29.75
2023-05-19T20:46:38.571Z,29.72
2023-05-19T20:49:09.426Z,29.75
2023-05-19T20:51:40.094Z,29.70
2023-05-19T20:54:10.886Z,29.57
2023-05-19T20:56:41.793Z,29.66
2023-05-19T20:59:12.827Z,29.67
2023-05-19T21:01:47.442Z,29.64
2023-05-19T21:04:18.461Z,29.66
2023-05-19T21:06:49.190Z,29.60
2023-05-19T21:09:20.309Z,29.58
2023-05-19T21:11:50.999Z,29.56
2023-05-19T21:14:22.612Z,29.49
2023-05-19T21:16:57.451Z,29.58
2023-05-19T21:19:28.914Z,29.53
2023-05-19T21:21:59.677Z,29.48
2023-05-19T21:24:30.440Z,29.55
2023-05-19T21:27:01.060Z,29.50
2023-05-19T21:29:32.022Z,29.46
2023-05-19T21:32:03.100Z,29.48
2023-05-19T21:34:34.230Z,29.51
2023-05-19T21:37:04.899Z,29.34
2023-05-19T21:39:36.251Z,29.49
2023-05-19T21:42:07.813Z,29.46
2023-05-19T21:44:39.229Z,29.18
2023-05-19T21:47:09.870Z,29.45
2023-05-19T21:49:41.527Z,29.44
2023-05-19T21:52:12.476Z,29.46
2023-05-19T21:54:43.474Z,29.38
2023-05-19T21:57:14.187Z,29.35
2023-05-19T21:59:46.193Z,29.22
2023-05-19T22:02:16.892Z,29.29
2023-05-19T22:04:47.888Z,29.35
2023-05-19T22:07:18.576Z,29.30
2023-05-19T22:09:49.738Z,29.33
2023-05-19T22:12:20.490Z,29.29
2023-05-19T22:14:51.660Z,29.31
2023-05-19T22:17:22.387Z,29.29
2023-05-19T22:19:53.865Z,29.25
2023-05-19T22:22:24.540Z,29.26
2023-05-19T22:24:55.477Z,29.26
2023-05-19T22:27:26.229Z,29.13
2023-05-19T22:29:57.081Z,29.24
2023-05-19T22:32:28.154Z,29.23
2023-05-19T22:34:59.044Z,29.19
2023-05-19T22:37:30.392Z,29.22
2023-05-19T22:40:01.266Z,29.14
2023-05-19T22:42:32.101Z,29.17
2023-05-19T22:45:03.070Z,29.08
2023-05-19T22:47:33.789Z,29.06
2023-05-19T22:50:04.807Z,28.92
2023-05-19T22:52:35.459Z,29.05
2023-05-19T22:55:06.990Z,29.05
2023-05-19T22:57:37.600Z,29.12
2023-05-19T23:00:09.667Z,29.12
2023-05-19T23:02:40.339Z,29.40
2023-05-19T23:05:11.803Z,29.62
2023-05-19T23:07:42.598Z,29.95
2023-05-19T23:10:13.715Z,30.04
2023-05-19T23:12:44.363Z,30.31
2023-05-19T23:15:15.458Z,30.46
2023-05-19T23:17:46.180Z,30.58
2023-05-19T23:20:17.883Z,30.71
2023-05-19T23:22:48.535Z,30.81
2023-05-19T23:25:19.676Z,30.86
2023-05-19T23:27:50.400Z,31.00
2023-05-19T23:30:21.273Z,31.05
2023-05-19T23:32:52.052Z,31.13
2023-05-19T23:35:22.993Z,31.17
2023-05-19T23:37:55.183Z,31.28
2023-05-19T23:40:26.020Z,31.29
2023-05-19T23:42:56.688Z,31.34
2023-05-19T23:45:27.751Z,31.37
2023-05-19T23:47:58.498Z,31.43
2023-05-19T23:50:29.394Z,31.43
2023-05-19T23:53:00.153Z,31.49
2023-05-19T23:55:30.949Z,31.49
2023-05-19T23:58:01.695Z,31.55
